createdAt,value
2023-04-27T00:01:51.754Z,10.47
2023-04-27T00:04:19.374Z,10.50
2023-04-27T00:06:46.240Z,10.57
2023-04-27T00:09:13.038Z,10.63
2023-04-27T00:11:39.631Z,10.30
2023-04-27T00:14:06.112Z,9.80
2023-04-27T00:16:32.667Z,9.47
2023-04-27T00:18:59.165Z,10.27
2023-04-27T00:21:25.622Z,11.07
2023-04-27T00:23:52.095Z,9.53
2023-04-27T00:26:18.562Z,9.93
2023-04-27T00:28:45.029Z,9.70
2023-04-27T00:31:11.643Z,10.70
2023-04-27T00:33:38.148Z,9.50
2023-04-27T00:36:04.979Z,9.70
2023-04-27T00:38:31.623Z,9.00
2023-04-27T00:41:05.677Z,9.07
2023-04-27T00:43:32.701Z,9.30
2023-04-27T00:46:00.687Z,9.97
2023-04-27T00:48:27.293Z,10.00
2023-04-27T00:50:53.932Z,9.67
2023-04-27T00:53:20.794Z,9.87
2023-04-27T00:55:47.582Z,9.83
2023-04-27T00:58:14.067Z,9.33
2023-04-27T01:00:40.956Z,9.47
2023-04-27T01:03:09.034Z,9.57
2023-04-27T01:05:49.083Z,9.87
2023-04-27T01:08:15.674Z,10.63
2023-04-27T01:10:42.418Z,10.23
2023-04-27T01:13:09.621Z,9.57
2023-04-27T01:15:36.213Z,10.27
2023-04-27T01:18:02.946Z,9.73
2023-04-27T01:20:30.489Z,9.53
2023-04-27T01:22:57.704Z,10.10
2023-04-27T01:25:24.797Z,9.83
2023-04-27T01:27:51.463Z,9.73
2023-04-27T01:30:17.938Z,10.60
2023-04-27T01:32:44.454Z,10.20
2023-04-27T01:35:11.317Z,10.50
2023-04-27T01:37:37.805Z,10.60
2023-04-27T01:40:06.621Z,10.40
2023-04-27T01:42:33.175Z,11.43
2023-04-27T01:45:00.577Z,10.73
2023-04-27T01:47:27.729Z,11.10
2023-04-27T01:49:54.235Z,10.00
2023-04-27T01:52:20.719Z,10.60
2023-04-27T01:54:47.185Z,10.63
2023-04-27T01:57:14.403Z,11.27
2023-04-27T01:59:40.921Z,11.70
2023-04-27T02:02:07.535Z,10.43
2023-04-27T02:04:36.563Z,10.73
2023-04-27T02:07:03.540Z,11.57
2023-04-27T02:09:30.067Z,11.33
2023-04-27T02:11:56.533Z,10.37
2023-04-27T02:14:22.988Z,9.93
2023-04-27T02:16:49.508Z,10.83
2023-04-27T02:19:16.330Z,11.47
2023-04-27T02:21:43.124Z,11.80
2023-04-27T02:24:10.078Z,11.10
2023-04-27T02:26:36.555Z,12.20
2023-04-27T02:29:03.930Z,12.53
2023-04-27T02:31:31.378Z,12.70
2023-04-27T02:33:57.849Z,11.13
2023-04-27T02:36:24.330Z,11.60
2023-04-27T02:38:50.852Z,11.27
2023-04-27T02:41:17.338Z,10.83
2023-04-27T02:43:43.900Z,12.67
2023-04-27T02:46:10.460Z,11.00
2023-04-27T02:48:36.973Z,12.87
2023-04-27T02:51:04.732Z,12.00
2023-04-27T02:53:31.272Z,10.60
2023-04-27T02:55:58.486Z,14.40
2023-04-27T02:58:25.112Z,10.60
2023-04-27T03:00:55.731Z,11.40
2023-04-27T03:03:23.139Z,10.80
2023-04-27T03:05:49.753Z,10.57
2023-04-27T03:08:16.329Z,11.27
2023-04-27T03:10:42.757Z,11.33
2023-04-27T03:13:09.261Z,11.03
2023-04-27T03:15:35.795Z,12.07
2023-04-27T03:18:02.413Z,12.43
2023-04-27T03:20:28.935Z,12.70
2023-04-27T03:22:55.491Z,11.57
2023-04-27T03:25:22.383Z,11.93
2023-04-27T03:27:48.915Z,12.27
2023-04-27T03:30:15.453Z,12.10
2023-04-27T03:32:42.102Z,11.33
2023-04-27T03:35:09.753Z,11.80
2023-04-27T03:37:36.333Z,12.07
2023-04-27T03:40:02.900Z,11.03
2023-04-27T03:42:29.638Z,11.70
2023-04-27T03:44:56.087Z,11.90
2023-04-27T03:47:22.864Z,13.63
2023-04-27T03:49:49.336Z,11.70
2023-04-27T03:52:15.821Z,12.17
2023-04-27T03:54:42.267Z,12.60
2023-04-27T03:57:09.128Z,12.20
2023-04-27T03:59:35.603Z,13.53
2023-04-27T04:02:03.930Z,12.40
2023-04-27T04:04:31.221Z,12.73
2023-04-27T04:06:59.105Z,14.07
2023-04-27T06:10:57.662Z,9.40
2023-04-27T06:50:43.965Z,8.80
2023-04-27T06:53:10.883Z,11.80
2023-04-27T06:55:37.392Z,7.60
2023-04-27T06:58:04.461Z,8.47
2023-04-27T07:00:31.772Z,8.00
2023-04-27T07:02:58.416Z,8.03
2023-04-27T07:05:24.992Z,8.63
2023-04-27T07:07:52.115Z,8.50
2023-04-27T07:10:18.775Z,8.63
2023-04-27T07:12:45.242Z,9.37
2023-04-27T07:15:11.730Z,8.80
2023-04-27T07:17:38.387Z,8.20
2023-04-27T07:20:06.448Z,8.47
2023-04-27T07:22:33.518Z,7.43
2023-04-27T07:25:00.164Z,8.53
2023-04-27T07:27:26.775Z,8.40
2023-04-27T07:29:53.440Z,6.27
2023-04-27T07:32:20.108Z,7.83
2023-04-27T07:34:53.736Z,7.23
2023-04-27T07:37:21.056Z,5.80
2023-04-27T07:39:48.889Z,6.90
2023-04-27T07:42:15.376Z,5.70
2023-04-27T07:44:42.536Z,6.60
2023-04-27T07:47:09.135Z,7.00
2023-04-27T07:49:36.368Z,6.90
2023-04-27T07:52:04.599Z,8.47
2023-04-27T07:54:31.467Z,6.83
2023-04-27T07:56:58.101Z,6.77
2023-04-27T07:59:24.588Z,6.27
2023-04-27T08:01:51.205Z,5.53
2023-04-27T08:04:18.145Z,5.40
2023-04-27T08:06:46.780Z,6.10
2023-04-27T08:09:14.170Z,6.20
2023-04-27T08:11:40.839Z,5.73
2023-04-27T08:14:13.418Z,4.97
2023-04-27T08:16:43.663Z,5.30
2023-04-27T08:19:11.052Z,5.53
2023-04-27T08:21:38.057Z,6.70
2023-04-27T08:24:07.641Z,5.20
2023-04-27T08:26:35.290Z,5.50
2023-04-27T08:29:11.774Z,5.60
2023-04-27T08:31:46.664Z,5.87
2023-04-27T08:34:13.352Z,5.37
2023-04-27T08:36:39.822Z,5.00
2023-04-27T08:39:07.762Z,5.50
2023-04-27T08:41:34.347Z,4.20
2023-04-27T08:44:00.828Z,5.10
2023-04-27T08:46:27.471Z,4.63
2023-04-27T08:48:54.659Z,5.20
2023-04-27T08:51:21.863Z,6.67
2023-04-27T08:53:52.340Z,4.80
2023-04-27T08:56:19.929Z,7.07
2023-04-27T08:58:46.547Z,5.47
2023-04-27T09:01:12.988Z,5.30
2023-04-27T09:03:39.752Z,4.90
2023-04-27T09:06:07.011Z,4.73
2023-04-27T09:08:47.440Z,4.70
2023-04-27T09:11:29.846Z,4.60
2023-04-27T09:13:56.851Z,4.03
2023-04-27T09:16:24.758Z,4.40
2023-04-27T09:18:51.394Z,5.90
2023-04-27T09:21:28.280Z,4.90
2023-04-27T09:23:55.952Z,5.23
2023-04-27T09:26:27.292Z,4.93
2023-04-27T09:28:58.659Z,6.13
2023-04-27T09:31:35.927Z,4.80
2023-04-27T09:34:02.935Z,5.33
2023-04-27T09:36:30.887Z,4.80
2023-04-27T09:38:58.065Z,5.03
2023-04-27T09:41:25.364Z,4.50
2023-04-27T09:43:52.862Z,4.83
2023-04-27T09:46:19.855Z,4.83
2023-04-27T09:48:46.828Z,4.90
2023-04-27T09:51:14.940Z,4.70
2023-04-27T09:53:48.350Z,5.13
2023-04-27T09:56:37.631Z,6.77
2023-04-27T09:59:32.382Z,4.63
2023-04-27T10:02:05.145Z,5.90
2023-04-27T10:05:01.716Z,5.73
2023-04-27T10:07:28.951Z,5.03
2023-04-27T10:10:01.495Z,4.87
2023-04-27T10:12:33.409Z,5.40
2023-04-27T10:15:12.589Z,5.13
2023-04-27T10:17:39.231Z,4.57
2023-04-27T10:20:09.810Z,4.63
2023-04-27T10:22:52.571Z,4.93
2023-04-27T10:25:22.558Z,4.80
2023-04-27T10:27:53.273Z,6.60
2023-04-27T10:30:20.785Z,4.90
2023-04-27T10:33:07.473Z,5.20
2023-04-27T10:35:38.864Z,7.20
2023-04-27T10:38:06.396Z,5.47
2023-04-27T10:40:34.651Z,8.63
2023-04-27T10:43:12.918Z,5.00
2023-04-27T10:45:40.096Z,9.07
2023-04-27T10:48:07.518Z,5.10
2023-04-27T10:50:34.381Z,6.13
2023-04-27T10:53:03.459Z,4.90
2023-04-27T10:55:31.185Z,5.33
2023-04-27T10:57:59.204Z,5.20
2023-04-27T11:00:43.964Z,6.93
2023-04-27T11:03:19.876Z,5.07
2023-04-27T11:05:48.094Z,6.43
2023-04-27T11:08:16.989Z,5.03
2023-04-27T11:10:46.282Z,4.60
2023-04-27T11:13:14.866Z,4.53
2023-04-27T11:15:47.805Z,4.47
2023-04-27T11:18:15.973Z,5.10
2023-04-27T11:20:44.055Z,4.47
2023-04-27T11:23:14.707Z,4.97
2023-04-27T11:25:41.142Z,4.80
2023-04-27T11:28:18.398Z,4.30
2023-04-27T11:30:44.996Z,3.83
2023-04-27T11:33:11.613Z,4.10
2023-04-27T11:35:39.447Z,5.20
2023-04-27T11:38:06.270Z,4.77
2023-04-27T11:40:35.847Z,4.70
2023-04-27T11:43:05.160Z,6.13
2023-04-27T11:45:32.069Z,4.77
2023-04-27T11:47:59.098Z,4.60
2023-04-27T11:50:26.739Z,4.87
2023-04-27T11:52:53.497Z,5.70
2023-04-27T11:55:24.523Z,4.90
2023-04-27T11:57:57.515Z,4.77
2023-04-27T12:00:24.376Z,5.00
2023-04-27T12:02:51.138Z,5.30
2023-04-27T12:05:18.202Z,4.60
2023-04-27T12:07:44.755Z,5.17
2023-04-27T12:10:11.830Z,4.60
2023-04-27T12:12:38.769Z,4.60
2023-04-27T12:15:06.381Z,5.03
2023-04-27T12:17:33.069Z,5.27
2023-04-27T12:19:59.621Z,4.70
2023-04-27T12:22:26.151Z,4.90
2023-04-27T12:24:52.732Z,5.73
2023-04-27T12:27:19.274Z,6.80
2023-04-27T12:29:45.947Z,5.93
2023-04-27T12:32:12.434Z,6.10
2023-04-27T12:34:39.637Z,4.90
2023-04-27T12:37:06.634Z,5.43
2023-04-27T12:39:33.091Z,5.70
2023-04-27T12:41:59.545Z,5.67
2023-04-27T12:44:26.961Z,6.03
2023-04-27T12:46:53.478Z,5.30
2023-04-27T12:49:19.967Z,5.53
2023-04-27T12:51:47.963Z,6.20
2023-04-27T12:54:14.710Z,6.13
2023-04-27T12:56:41.955Z,6.00
2023-04-27T12:59:08.863Z,5.97
2023-04-27T13:01:35.433Z,6.20
2023-04-27T13:04:06.666Z,5.83
2023-04-27T13:14:24.969Z,5.80
2023-04-27T13:17:03.623Z,6.27
2023-04-27T15:30:57.107Z,9.30
2023-04-27T15:33:31.649Z,8.90
2023-04-27T15:39:31.632Z,8.60
2023-04-27T15:47:58.248Z,9.90
2023-04-27T15:58:26.799Z,10.10
2023-04-27T16:01:30.065Z,10.20
2023-04-27T16:04:03.120Z,9.40
2023-04-27T16:06:41.718Z,10.03
2023-04-27T16:09:13.849Z,11.30
2023-04-27T17:06:04.611Z,11.17
2023-04-27T17:28:20.226Z,9.87
2023-04-27T17:38:01.121Z,9.80
2023-04-27T17:44:41.712Z,8.53
2023-04-27T18:02:01.689Z,8.73
2023-04-27T18:04:28.742Z,8.83
2023-04-27T18:06:56.388Z,9.33
2023-04-27T18:09:33.177Z,10.07
2023-04-27T18:12:00.200Z,10.20
2023-04-27T18:14:26.749Z,9.07
2023-04-27T18:16:53.276Z,8.83
2023-04-27T18:19:19.835Z,9.17
2023-04-27T18:21:46.535Z,9.90
2023-04-27T18:24:21.426Z,10.07
2023-04-27T18:26:47.942Z,9.47
2023-04-27T18:29:14.768Z,9.40
2023-04-27T18:31:41.582Z,9.23
2023-04-27T18:34:08.220Z,9.90
2023-04-27T18:36:34.736Z,9.23
2023-04-27T18:39:01.260Z,8.70
2023-04-27T18:41:27.793Z,9.50
2023-04-27T18:43:54.261Z,9.07
2023-04-27T18:46:21.056Z,10.00
2023-04-27T18:48:47.615Z,9.60
2023-04-27T18:51:14.102Z,8.93
2023-04-27T18:53:40.757Z,9.17
2023-04-27T18:56:08.868Z,10.63
2023-04-27T18:58:36.054Z,10.33
2023-04-27T19:01:02.659Z,10.20
2023-04-27T19:03:29.521Z,10.67
2023-04-27T19:05:56.456Z,11.33
2023-04-27T19:08:22.998Z,10.23
2023-04-27T19:10:51.496Z,11.50
2023-04-27T19:13:18.276Z,12.07
2023-04-27T19:15:44.830Z,13.17
2023-04-27T19:18:11.955Z,12.67
2023-04-27T19:20:39.630Z,13.63
2023-04-27T19:23:08.032Z,12.97
2023-04-27T19:25:34.723Z,12.87
2023-04-27T19:28:01.344Z,12.67
2023-04-27T19:30:27.920Z,12.90
2023-04-27T19:32:54.593Z,13.03
2023-04-27T19:35:23.660Z,13.33
2023-04-27T19:37:50.873Z,12.83
2023-04-27T19:40:18.117Z,13.30
2023-04-27T19:42:44.700Z,12.50
2023-04-27T19:45:11.449Z,12.87
2023-04-27T19:47:37.931Z,15.00
2023-04-27T19:50:05.043Z,14.77
2023-04-27T19:52:31.641Z,15.33
2023-04-27T19:54:58.300Z,15.50
2023-04-27T19:57:24.759Z,15.70
2023-04-27T19:59:51.321Z,15.13
2023-04-27T20:02:17.837Z,15.67
2023-04-27T20:04:44.543Z,16.37
2023-04-27T20:07:12.103Z,15.10
2023-04-27T20:09:38.593Z,15.80
2023-04-27T20:12:05.202Z,15.70
2023-04-27T20:14:35.057Z,16.67
2023-04-27T20:17:03.065Z,17.53
2023-04-27T20:19:30.100Z,16.27
2023-04-27T20:21:56.721Z,16.17
2023-04-27T20:24:23.412Z,15.73
2023-04-27T20:26:49.908Z,16.03
2023-04-27T20:29:16.376Z,16.73
2023-04-27T20:31:42.966Z,17.20
2023-04-27T20:34:09.458Z,18.87
2023-04-27T20:36:36.499Z,19.43
2023-04-27T20:39:04.324Z,19.23
2023-04-27T20:41:31.111Z,18.83
2023-04-27T20:43:58.595Z,20.10
2023-04-27T20:46:25.051Z,20.10
2023-04-27T20:48:51.633Z,19.97
2023-04-27T20:51:18.435Z,20.37
2023-04-27T20:53:44.900Z,17.57
2023-04-27T20:56:12.087Z,20.03
2023-04-27T20:58:38.552Z,19.93
2023-04-27T21:01:05.137Z,20.33
2023-04-27T21:03:31.823Z,21.80
2023-04-27T21:05:58.394Z,21.50
2023-04-27T21:08:25.011Z,21.17
2023-04-27T21:10:51.527Z,27.13
2023-04-27T21:13:17.986Z,26.17
2023-04-27T21:15:44.433Z,25.83
2023-04-27T21:18:19.153Z,24.33
2023-04-27T21:20:55.398Z,23.50
2023-04-27T21:23:21.833Z,23.70
2023-04-27T21:25:48.347Z,24.40
2023-04-27T21:28:14.828Z,23.13
2023-04-27T21:30:41.509Z,24.47
2023-04-27T21:33:08.061Z,24.53
2023-04-27T21:35:34.905Z,23.43
2023-04-27T21:38:01.835Z,23.97
2023-04-27T21:40:28.301Z,23.03
2023-04-27T21:42:55.211Z,23.07
2023-04-27T21:45:21.678Z,23.03
2023-04-27T21:47:48.211Z,21.80
2023-04-27T21:50:16.588Z,23.07
2023-04-27T21:52:43.360Z,21.00
2023-04-27T21:55:10.094Z,22.00
2023-04-27T21:57:36.876Z,21.53
2023-04-27T22:00:13.167Z,22.23
2023-04-27T22:02:42.443Z,19.27
2023-04-27T22:05:12.265Z,21.00
2023-04-27T22:07:38.969Z,19.57
2023-04-27T22:10:06.188Z,19.37
2023-04-27T22:12:33.433Z,18.63
2023-04-27T22:15:00.036Z,19.47
2023-04-27T22:17:26.626Z,19.50
2023-04-27T22:19:53.465Z,20.60
2023-04-27T22:22:19.943Z,27.13
2023-04-27T22:24:47.486Z,26.63
2023-04-27T22:27:13.988Z,26.77
2023-04-27T22:29:40.455Z,27.63
2023-04-27T22:32:07.522Z,25.87
2023-04-27T22:34:34.034Z,27.37
2023-04-27T22:37:00.641Z,25.47
2023-04-27T22:39:27.183Z,23.93
2023-04-27T22:41:53.733Z,26.13
2023-04-27T22:44:20.402Z,23.13
2023-04-27T22:46:46.945Z,22.93
2023-04-27T22:49:14.963Z,23.20
2023-04-27T22:51:41.456Z,20.30
2023-04-27T22:54:07.899Z,22.00
2023-04-27T22:56:34.371Z,22.03
2023-04-27T22:59:00.906Z,19.53
2023-04-27T23:01:27.390Z,20.17
2023-04-27T23:03:54.216Z,18.60
2023-04-27T23:06:21.205Z,19.43
2023-04-27T23:08:48.079Z,19.33
2023-04-27T23:11:15.492Z,19.43
2023-04-27T23:13:42.110Z,19.07
2023-04-27T23:16:09.972Z,18.50
2023-04-27T23:18:36.666Z,20.20
2023-04-27T23:21:03.303Z,19.77
2023-04-27T23:23:29.832Z,19.53
2023-04-27T23:25:56.289Z,20.67
2023-04-27T23:28:22.746Z,19.60
2023-04-27T23:30:54.369Z,18.77
2023-04-27T23:33:21.815Z,19.23
2023-04-27T23:35:48.343Z,17.90
2023-04-27T23:38:14.851Z,18.20
2023-04-27T23:40:41.347Z,19.40
2023-04-27T23:43:07.800Z,19.00
2023-04-27T23:45:34.272Z,19.00
2023-04-27T23:48:00.857Z,18.40
2023-04-27T23:50:27.326Z,17.67
2023-04-27T23:52:53.776Z,17.90
2023-04-27T23:55:20.429Z,17.40
2023-04-27T23:57:47.016Z,18.53
